Date,TemperatureHighF,TemperatureAvgF,TemperatureLowF,DewpointHighF,DewpointAvgF,DewpointLowF,HumidityHigh,HumidityAvg,HumidityLow,PressureMaxIn,PressureMinIn,WindSpeedMaxMPH,WindSpeedAvgMPH,GustSpeedMaxMPH,PrecipitationSumIn
2013-1-1,45,42,37,45,41,35,98,96,92,30.32,30.08,9,4,0,0.01
2013-1-2,41,35,25,35,32,25,98,89,75,30.39,30.30,7,3,0,0.00
2013-1-3,52,38,24,38,31,23,98,80,49,30.51,30.37,9,2,0,0.00
2013-1-4,53,44,37,39,35,33,91,72,51,30.57,30.41,4,1,0,0.00
2013-1-5,54,43,32,44,40,31,98,91,67,30.41,30.27,8,2,0,0.01
2013-1-6,59,40,28,38,32,28,98,75,37,30.44,30.33,8,2,0,0.00
2013-1-7,57,42,25,40,33,23,96,70,47,30.38,30.15,7,2,0,0.00
2013-1-8,50,48,46,49,45,38,98,90,72,30.15,29.99,8,3,0,1.07
2013-1-9,57,54,49,56,53,48,98,98,98,30.17,30.00,17,6,0,2.53
2013-1-10,62,56,48,59,53,48,98,91,70,30.04,29.95,10,5,0,0.09
2013-1-11,73,59,47,65,55,47,98,86,57,30.00,29.82,13,6,0,0.00
2013-1-12,75,58,37,74,57,37,98,98,87,29.96,29.68,12,5,0,0.15
2013-1-13,45,37,29,37,30,23,98,77,59,30.31,29.94,13,6,0,0.01
2013-1-14,46,34,26,32,27,23,92,76,58,30.38,30.25,9,4,0,0.00
2013-1-15,36,33,29,35,30,26,98,89,73,30.27,30.19,10,4,0,0.09
2013-1-16,50,36,25,29,26,23,93,69,40,30.34,30.21,7,2,0,0.20
2013-1-17,61,43,29,42,34,26,95,72,41,30.55,30.28,10,2,0,0.00
2013-1-18,61,41,32,42,36,31,98,83,50,30.56,30.33,9,3,0,0.00
2013-1-19,66,51,38,51,45,38,98,81,55,30.33,30.20,13,4,0,0.00
2013-1-20,71,54,39,54,48,39,98,83,52,30.26,30.11,10,2,0,0.03
2013-1-21,61,47,36,49,40,32,98,77,53,30.34,30.16,8,2,0,0.00
2013-1-22,65,48,32,52,42,29,98,80,61,30.36,30.23,6,2,0,0.00
2013-1-23,73,60,50,60,56,49,98,86,61,30.33,30.18,11,5,0,0.00
2013-1-24,79,63,54,67,60,54,98,92,61,30.24,30.08,12,4,0,0.00
2013-1-25,64,53,48,63,50,44,98,93,83,30.23,30.07,8,3,0,0.00
2013-1-26,52,49,45,51,48,44,98,97,85,30.26,30.14,7,3,0,0.01
2013-1-27,76,62,49,68,59,49,98,90,69,30.15,29.97,11,5,0,0.01
2013-1-28,79,72,67,71,68,66,98,88,70,30.05,29.89,13,7,0,0.02
2013-1-29,78,67,53,71,65,47,98,93,72,29.89,29.48,18,8,0,0.48
2013-1-30,55,46,33,43,33,26,87,61,35,30.18,29.73,16,6,0,0.00
2013-1-31,69,49,32,69,36,24,99,65,20,30.35,30.13,10,4,0,0.00
2013-2-1,63,46,28,42,33,22,79,62,41,30.44,30.21,8,4,0,0.00
2013-2-2,70,54,39,51,43,36,94,68,33,30.36,30.19,8,3,0,0.00
2013-2-3,72,52,32,46,36,31,98,63,23,30.36,30.04,6,1,0,0.28
2013-2-4,72,60,54,62,52,38,98,77,50,30.03,29.84,10,4,0,0.00
2013-2-5,70,61,55,66,60,55,98,96,86,30.04,29.91,7,3,0,0.02
2013-2-6,73,63,56,67,61,56,98,93,75,30.06,29.91,7,4,0,0.00
2013-2-7,80,64,56,65,58,48,98,85,35,30.11,29.83,12,6,0,0.00
2013-2-8,67,54,42,52,41,31,94,65,27,30.29,30.11,11,4,0,0.00
2013-2-9,61,51,46,60,49,41,98,96,83,30.18,29.80,8,5,0,0.08
2013-2-10,69,59,44,65,44,26,98,66,20,30.05,29.69,13,4,0,1.09
2013-2-11,54,50,44,45,42,37,97,74,60,30.18,30.04,11,3,0,0.00
2013-2-12,54,48,44,52,47,44,98,98,95,30.07,29.87,13,4,0,0.82
2013-2-13,58,47,40,44,41,39,98,82,51,30.20,30.04,11,4,0,0.00
2013-2-14,70,57,36,48,42,35,98,60,33,30.15,30.04,7,3,0,0.00
2013-2-15,54,46,29,43,34,23,87,64,34,30.42,30.13,13,4,0,0.00
2013-2-16,59,42,25,35,30,23,98,67,32,30.45,30.22,5,1,0,0.00
2013-2-17,71,54,37,50,37,30,85,57,22,30.22,29.97,18,7,0,0.01
2013-2-18,81,62,49,62,49,37,91,66,27,30.15,29.78,14,8,0,0.00
2013-2-19,64,51,32,38,32,25,98,53,27,30.37,30.15,8,3,0,0.00
2013-2-20,51,45,41,46,40,34,98,82,51,30.22,29.84,14,6,0,0.17
2013-2-21,70,54,43,56,43,27,98,72,21,29.96,29.63,13,5,0,0.39
2013-2-22,51,41,32,41,32,27,97,72,48,30.18,29.94,8,4,0,0.00
2013-2-23,59,42,28,34,31,26,96,67,39,30.12,29.96,9,2,0,0.00
2013-2-24,72,54,35,49,42,32,94,66,38,29.97,29.67,10,4,0,0.00
2013-2-25,64,53,41,58,43,33,98,72,35,29.66,29.47,19,7,0,0.09
2013-2-26,60,48,40,40,37,34,84,66,42,29.94,29.67,14,6,0,0.00
2013-2-27,60,47,35,39,32,25,94,61,27,30.26,29.92,12,5,0,0.00
2013-2-28,60,47,35,35,32,28,86,58,34,30.33,30.20,11,6,0,0.00
2013-3-1,59,44,28,37,33,27,98,67,44,30.34,30.23,10,3,0,0.00
2013-3-2,56,42,31,32,27,24,84,59,32,30.47,30.27,11,4,0,0.00
2013-3-3,70,54,33,48,34,26,80,51,29,30.27,29.86,17,6,0,0.00
2013-3-4,84,67,55,59,52,46,87,62,28,29.86,29.64,14,8,0,0.00
2013-3-5,63,51,37,56,31,20,78,49,22,30.40,29.78,14,6,0,0.00
2013-3-6,66,48,29,63,27,20,99,50,20,30.50,30.25,7,2,0,0.00
2013-3-7,72,55,38,39,32,24,62,44,21,30.29,30.14,12,4,0,0.00
2013-3-8,66,58,52,61,54,39,98,85,54,30.24,30.05,8,4,0,0.00
2013-3-9,69,65,60,68,64,59,98,96,90,30.05,29.68,14,7,0,0.12
2013-3-10,65,52,39,64,45,34,98,77,55,30.12,29.74,15,6,0,1.39
2013-3-11,62,45,30,36,30,22,98,62,24,30.16,30.04,9,3,0,0.00
2013-3-12,71,52,32,37,33,29,90,53,22,30.35,30.08,12,2,0,0.00
2013-3-13,73,55,38,43,38,33,95,58,27,30.49,30.35,8,2,0,0.00
2013-3-14,78,61,46,52,44,36,75,55,35,30.41,30.21,14,5,0,0.00
2013-3-15,82,67,53,60,52,48,98,64,34,30.22,29.94,17,7,0,0.00
2013-3-16,82,69,58,63,59,53,98,72,49,29.94,29.73,14,8,0,0.00
2013-3-17,77,68,56,66,62,54,98,81,55,29.83,29.70,12,5,0,0.00
2013-3-18,73,64,51,68,54,42,98,75,48,30.05,29.68,11,4,0,0.00
2013-3-19,72,58,41,49,43,39,98,62,37,30.16,29.99,8,4,0,0.00
2013-3-20,71,58,44,44,37,27,82,51,20,30.34,30.07,7,3,0,0.00
2013-3-21,71,60,50,60,46,35,82,60,45,30.07,29.62,14,6,0,0.00
2013-3-22,66,56,48,66,54,47,98,94,78,29.88,29.61,9,5,0,0.00
2013-3-23,58,52,47,55,50,47,98,96,86,29.97,29.69,10,4,0,0.42
2013-3-24,56,47,40,50,35,25,98,65,42,30.21,29.82,16,8,0,0.06
2013-3-25,58,44,28,31,24,19,83,49,25,30.45,30.21,13,5,0,0.00
2013-3-26,64,43,24,30,24,20,85,52,23,30.56,30.36,7,2,0,0.00
2013-3-27,62,57,56,46,45,44,69,63,54,30.20,30.15,6,3,0,0.00
2013-3-28,67,57,55,60,50,46,81,78,70,30.22,30.14,11,7,0,0.00
2013-3-29,78,68,60,63,61,59,98,80,59,30.24,30.10,10,6,0,0.00
2013-3-30,79,68,55,69,64,54,98,88,67,30.14,29.93,10,4,0,1.25
2013-3-31,78,67,59,66,62,55,98,84,56,30.02,29.84,12,4,0,0.28
2013-4-1,82,67,47,59,55,47,98,69,38,30.11,29.97,6,1,0,0.00
2013-4-2,75,66,52,67,61,46,98,85,74,30.06,29.93,13,5,0,0.04
2013-4-3,55,49,46,51,48,45,98,95,80,30.18,29.99,13,5,0,1.57
2013-4-4,52,46,43,47,44,42,98,93,81,30.23,30.14,9,4,0,0.07
2013-4-5,72,56,40,54,48,39,98,78,49,30.29,30.07,6,2,0,0.00
2013-4-6,77,65,54,63,57,53,98,78,53,30.07,29.89,15,7,0,0.00
2013-4-7,74,67,59,66,63,58,98,88,76,29.96,29.79,12,7,0,0.00
2013-4-8,78,72,65,69,66,62,98,84,74,29.81,29.71,14,8,0,0.00
2013-4-9,85,75,68,71,69,65,98,83,57,29.77,29.67,15,7,0,0.00
2013-4-10,73,50,41,73,50,40,98,97,88,29.99,29.73,14,7,0,0.81
2013-4-11,69,50,39,46,40,35,98,71,38,30.00,29.84,9,3,0,0.06
2013-4-12,81,61,40,55,48,39,98,68,31,30.04,29.89,6,2,0,0.00
2013-4-13,81,67,50,58,53,48,96,64,39,30.05,29.82,9,3,0,0.00
2013-4-14,82,69,54,70,62,53,98,80,61,29.82,29.60,11,5,0,0.00
2013-4-15,87,77,68,74,70,67,98,82,57,29.81,29.66,17,7,0,0.00
2013-4-16,89,79,72,73,72,69,98,80,56,29.94,29.80,11,6,0,0.00
2013-4-17,86,78,74,76,74,72,98,87,66,29.93,29.68,15,8,0,0.01
2013-4-18,75,57,46,75,52,38,98,85,58,30.18,29.60,17,8,0,2.82
2013-4-19,68,52,38,42,36,31,92,60,27,30.31,30.17,12,4,0,0.00
2013-4-20,74,58,42,46,42,37,90,58,27,30.26,30.06,10,4,0,0.00
2013-4-21,75,61,45,55,51,43,98,71,47,30.26,30.11,9,3,0,0.00
2013-4-22,79,66,51,64,58,50,98,76,59,30.16,29.90,13,5,0,0.00
2013-4-23,70,57,44,68,55,42,98,94,84,30.19,29.85,12,6,0,0.00
2013-4-24,67,52,41,47,42,37,97,71,46,30.35,30.20,11,5,0,0.00
2013-4-25,77,63,49,53,47,40,78,57,36,30.38,30.21,8,3,0,0.00
2013-4-26,79,68,59,71,61,49,92,80,64,30.22,30.01,11,4,0,0.00
2013-4-27,78,71,59,69,65,59,98,82,57,30.14,30.02,11,4,0,0.00
2013-4-28,86,68,52,71,63,51,98,85,57,30.09,29.90,7,2,0,0.00
2013-4-29,86,74,61,72,66,60,98,78,50,29.96,29.83,10,4,0,0.00
2013-4-30,86,72,61,70,65,60,98,82,55,29.89,29.78,9,4,0,0.00
2013-5-1,87,74,63,73,67,62,98,82,52,30.00,29.83,8,4,0,0.00
2013-5-2,67,54,43,66,52,40,98,93,80,30.35,29.97,13,7,0,0.09
2013-5-3,70,54,40,41,36,29,90,57,23,30.33,30.07,15,6,0,0.00
2013-5-4,76,59,38,75,38,-2,99,54,5,30.06,29.92,14,4,0,0.00
2013-5-5,72,57,43,52,47,42,96,72,50,30.19,30.06,12,3,0,0.00
2013-5-6,81,64,45,60,54,44,98,73,44,30.15,30.02,7,1,0,0.00
2013-5-7,88,73,55,61,58,54,97,63,35,30.11,29.98,6,2,0,0.00
2013-5-8,87,74,61,66,61,57,90,67,42,30.05,29.91,12,5,0,0.00
2013-5-9,73,69,66,72,68,62,98,94,73,30.02,29.87,10,4,0,0.51
2013-5-10,84,72,64,72,68,64,98,86,61,30.07,29.91,5,1,0,0.01
2013-5-11,84,71,59,64,58,53,98,67,36,30.20,30.04,8,3,0,0.00
2013-5-12,81,68,53,58,47,35,88,52,20,30.31,30.18,9,3,0,0.00
2013-5-13,88,72,54,57,52,44,87,53,27,30.29,30.15,10,4,0,0.00
2013-5-14,88,75,60,67,61,52,98,65,32,30.21,30.03,10,5,0,0.00
2013-5-15,80,72,63,72,70,62,98,94,75,30.10,29.83,13,7,0,1.79
2013-5-16,82,71,63,76,69,62,98,94,79,29.93,29.78,10,4,0,1.30
2013-5-17,92,81,72,80,76,71,98,86,64,29.89,29.82,11,4,0,0.00
2013-5-18,94,82,72,78,75,72,98,81,56,29.95,29.80,14,7,0,0.00
2013-5-19,92,81,70,76,73,70,98,80,58,29.89,29.72,15,8,0,0.01
2013-5-20,92,81,74,77,75,73,97,81,61,29.87,29.70,17,8,0,0.00
2013-5-21,88,75,64,78,72,62,98,90,69,29.91,29.70,14,6,0,1.66
2013-5-22,94,72,56,71,65,55,98,81,43,29.99,29.87,5,1,0,0.00
2013-5-23,89,79,68,80,74,68,98,88,67,30.11,29.92,9,3,0,0.00
2013-5-24,88,79,69,80,75,68,98,89,69,30.22,30.03,8,2,0,0.19
2013-5-25,86,74,68,77,71,68,98,92,70,30.22,30.08,10,3,0,0.39
2013-5-26,89,79,71,78,74,71,98,86,62,30.13,29.97,10,5,0,0.01
2013-5-27,90,80,72,75,73,71,98,81,59,30.03,29.83,12,7,0,0.00
2013-5-28,90,80,72,75,72,70,98,78,56,29.93,29.81,14,8,0,0.00
2013-5-29,84,78,73,76,74,73,98,91,77,29.87,29.76,15,7,0,0.14
2013-5-30,91,81,75,79,76,74,98,87,68,29.84,29.73,14,8,0,0.05
2013-5-31,94,84,77,79,77,76,98,82,58,29.88,29.71,12,8,0,0.00
2013-6-1,91,81,73,81,77,73,98,87,67,29.98,29.76,17,6,0,0.10
2013-6-2,89,76,66,73,64,57,98,71,36,30.10,29.96,9,3,0,0.00
2013-6-3,96,77,60,70,65,60,98,71,35,30.03,29.88,7,2,0,0.00
2013-6-4,94,81,68,76,72,67,98,76,53,30.04,29.82,12,4,0,0.00
2013-6-5,99,83,71,78,74,70,98,77,44,29.99,29.77,11,3,0,0.00
2013-6-6,79,73,68,76,71,30,99,94,23,29.97,29.82,8,3,0,3.91
2013-6-7,86,75,62,70,64,52,98,71,49,30.04,29.92,8,2,0,0.00
2013-6-8,91,78,62,70,66,61,98,71,48,29.98,29.83,7,2,0,0.00
2013-6-9,99,80,70,77,72,35,99,79,27,29.98,29.89,9,2,0,1.22
2013-6-10,102,85,71,78,73,70,98,72,39,30.00,29.93,9,3,0,0.00
2013-6-11,96,85,74,79,76,72,98,77,52,30.07,29.95,10,4,0,0.00
2013-6-12,99,85,75,78,76,73,98,76,48,30.11,29.96,10,4,0,0.00
2013-6-13,98,87,74,80,77,73,98,74,51,30.10,29.94,9,4,0,0.00
2013-6-14,100,88,75,78,76,74,98,69,48,30.03,29.91,6,1,0,0.00
2013-6-15,94,83,71,81,77,69,98,83,64,30.05,29.92,11,3,0,0.09
2013-6-16,100,86,76,79,76,72,98,74,44,30.06,29.90,7,3,0,0.00
2013-6-17,96,82,70,81,75,52,98,80,52,30.09,29.89,8,3,0,1.17
2013-6-18,86,78,74,79,75,72,98,89,72,30.04,29.91,6,2,0,0.00
2013-6-19,95,82,71,81,71,48,98,71,43,30.03,29.91,6,2,0,0.15
2013-6-20,98,86,76,78,76,73,98,73,45,30.09,29.97,10,4,0,0.00
2013-6-21,98,86,75,78,75,72,98,72,45,30.12,30.00,10,5,0,0.00
2013-6-22,97,86,75,78,75,72,97,72,48,30.09,29.92,11,5,0,0.00
2013-6-23,98,86,74,78,74,71,98,70,44,30.04,29.92,11,5,0,0.00
2013-6-24,98,87,76,77,74,71,94,69,46,30.08,29.93,13,5,0,0.00
2013-6-25,99,88,76,78,74,70,96,67,41,30.04,29.87,12,7,0,0.00
2013-6-26,101,88,76,78,75,70,96,66,43,30.01,29.88,10,6,0,0.00
2013-6-27,106,89,77,79,74,69,88,65,33,30.06,29.89,10,3,0,0.00
2013-6-28,104,88,77,78,74,70,85,64,42,29.98,29.84,7,3,0,0.00
2013-6-29,100,87,73,77,69,65,92,60,34,29.93,29.83,8,2,0,0.00
2013-6-30,93,82,71,70,65,61,94,60,36,29.97,29.84,10,3,0,0.00
2013-7-1,91,79,66,68,65,62,95,65,41,30.05,29.96,9,3,0,0.00
2013-7-2,92,79,63,67,61,54,93,59,30,30.12,30.03,7,2,0,0.00
2013-7-3,94,80,60,69,60,55,98,55,28,30.10,29.97,6,2,0,0.00
2013-7-4,97,82,69,71,66,62,90,61,32,30.05,29.93,9,3,0,0.00
2013-7-5,99,84,67,74,68,63,98,63,32,30.04,29.89,8,2,0,0.00
2013-7-6,99,85,71,75,69,62,92,61,32,30.00,29.89,7,3,0,0.00
2013-7-7,103,88,73,79,72,67,94,64,36,30.04,29.94,8,3,0,0.00
2013-7-8,89,80,76,79,77,75,98,89,71,30.13,30.02,7,4,0,0.00
2013-7-9,102,92,76,79,72,67,98,56,33,30.17,30.01,9,4,0,0.00
2013-7-10,106,91,80,79,74,69,92,60,34,30.10,29.93,8,4,0,0.00
2013-7-11,105,88,78,79,76,72,98,69,40,30.01,29.92,11,3,0,0.00
2013-7-12,103,88,74,79,72,30,99,61,20,30.02,29.91,13,3,0,0.00
2013-7-13,102,89,76,76,72,63,89,60,37,30.04,29.91,9,4,0,0.00
2013-7-14,77,73,70,71,61,30,91,69,21,30.06,29.93,8,2,0,0.28
2013-7-15,79,73,68,75,65,30,99,80,22,30.13,29.98,8,2,0,0.41
2013-7-16,93,78,72,77,68,23,99,76,15,30.26,30.11,15,3,0,1.77
2013-7-17,93,81,72,84,73,31,99,79,15,30.27,30.17,9,3,0,0.26
2013-7-18,100,85,72,84,73,31,99,70,21,30.22,30.03,7,1,0,0.00
2013-7-19,96,82,75,80,64,-18,99,60,2,30.08,29.97,8,2,0,0.11
2013-7-20,98,83,73,84,74,54,99,78,43,30.02,29.88,6,2,0,0.00
2013-7-21,99,86,74,84,75,39,99,74,26,29.97,29.87,11,4,0,0.00
2013-7-22,100,88,77,82,75,36,99,68,22,30.02,29.89,11,5,0,0.00
2013-7-23,100,89,78,82,74,44,99,64,29,30.01,29.85,10,5,0,0.00
2013-7-24,98,84,75,79,72,47,81,67,37,30.09,29.89,9,3,0,0.00
2013-7-25,98,85,72,81,74,15,99,72,10,30.08,30.00,7,2,0,0.00
2013-7-26,98,84,78,81,73,37,99,70,22,30.06,29.88,9,4,0,0.06
2013-7-27,94,81,72,77,71,39,99,75,25,30.05,29.94,11,4,0,0.00
2013-7-28,97,83,68,77,70,31,99,69,16,30.04,29.90,9,2,0,0.00
2013-7-29,98,87,77,81,72,36,99,66,21,30.04,29.95,11,5,0,0.00
2013-7-30,100,89,79,79,71,52,80,57,39,30.13,29.98,12,6,0,0.00
2013-7-31,94,89,84,76,75,73,75,63,52,30.00,29.96,4,1,0,0.00
2013-8-1,106,91,77,78,74,52,82,61,37,30.04,29.91,9,2,0,0.00
2013-8-2,104,91,78,78,74,71,83,61,36,29.99,29.89,9,3,0,0.00
2013-8-3,103,90,79,78,75,69,83,63,35,30.05,29.95,8,4,0,0.00
2013-8-4,102,90,78,79,75,72,83,65,39,30.11,29.95,9,4,0,0.00
2013-8-5,104,91,80,77,73,68,82,59,33,30.04,29.87,9,4,0,0.00
2013-8-6,104,91,79,77,73,68,84,58,34,29.95,29.81,11,5,0,0.00
2013-8-7,105,92,79,79,74,69,84,59,34,29.93,29.79,12,5,0,0.00
2013-8-8,105,91,79,79,74,70,84,59,36,29.92,29.79,11,4,0,0.00
2013-8-9,106,91,78,77,67,54,80,51,19,29.98,29.86,9,4,0,0.00
2013-8-10,102,88,72,80,73,20,99,64,10,30.09,29.98,9,2,0,0.00
2013-8-11,102,84,76,96,72,37,99,71,24,30.12,29.99,6,2,0,0.00
2013-8-12,94,88,85,75,72,71,73,60,49,30.00,29.96,5,2,0,0.00
2013-8-13,101,86,77,79,76,67,99,76,47,30.04,29.92,12,4,0,0.71
2013-8-14,93,82,76,85,73,-2,99,79,4,30.06,29.97,8,3,0,0.05
2013-8-15,92,80,70,73,64,43,75,60,32,30.11,29.99,8,4,0,0.00
2013-8-16,92,79,69,74,66,11,99,68,10,30.11,29.99,8,3,0,0.14
2013-8-17,93,78,61,75,64,30,99,65,26,30.13,30.00,8,3,0,0.00
2013-8-18,94,80,66,76,65,38,99,64,33,30.14,30.02,7,3,0,0.00
2013-8-19,99,84,70,75,65,32,99,56,24,30.11,29.96,8,3,0,0.00
2013-8-20,100,85,70,72,66,60,76,56,33,30.09,29.98,7,2,0,0.00
2013-8-21,99,85,72,76,68,43,75,59,34,30.14,30.02,8,2,0,0.00
2013-8-22,105,89,76,78,72,65,73,61,32,30.13,29.96,8,2,0,0.00
2013-8-23,103,89,76,79,70,-11,99,57,3,30.07,29.92,11,2,0,0.01
2013-8-24,102,89,76,79,72,58,72,59,41,30.10,30.00,7,3,0,0.00
2013-8-25,99,87,73,77,70,41,73,58,32,30.18,30.08,8,3,0,0.00
2013-8-26,99,86,73,79,69,9,99,59,8,30.21,30.08,11,4,0,0.00
2013-8-27,97,83,75,82,71,37,99,70,24,30.18,30.05,8,3,0,0.00
2013-8-28,101,86,73,77,70,18,99,64,10,30.15,30.02,6,2,0,0.00
2013-8-29,105,90,72,76,68,35,71,51,25,30.12,29.98,5,1,0,0.00
2013-8-30,106,91,75,76,69,63,72,52,29,30.05,29.89,5,2,0,0.00
2013-8-31,106,91,77,78,70,57,72,52,31,29.95,29.82,11,3,0,0.16
2013-9-1,104,92,80,77,73,69,71,56,34,29.93,29.79,8,3,0,0.00
2013-9-2,97,84,76,83,71,5,99,67,5,30.04,29.88,7,2,0,0.17
2013-9-3,103,88,73,79,73,35,99,66,21,30.03,29.90,6,1,0,0.00
2013-9-4,103,88,74,81,71,39,99,59,27,30.09,29.96,7,2,0,0.00
2013-9-5,103,88,75,79,68,40,70,52,28,30.15,30.02,6,2,0,0.00
2013-9-6,103,87,74,77,69,62,71,57,36,30.13,29.98,5,2,0,0.00
2013-9-7,101,88,76,77,69,55,70,56,35,30.08,29.94,10,3,0,0.00
2013-9-8,100,86,69,84,68,-3,99,61,5,30.03,29.90,9,3,0,0.00
2013-9-9,97,85,72,82,69,22,99,61,10,30.05,29.94,9,3,0,0.00
2013-9-10,96,84,73,84,67,16,99,60,10,30.14,30.03,10,3,0,0.00
2013-9-11,98,83,72,86,67,-10,99,62,3,30.17,30.04,7,2,0,0.11
2013-9-12,100,86,73,81,73,32,99,70,16,30.11,29.95,6,2,0,0.00
2013-9-13,98,86,75,83,70,40,99,62,27,30.01,29.86,8,2,0,0.00
2013-9-14,96,84,74,72,67,63,69,58,43,30.02,29.91,8,5,0,0.00
2013-9-15,98,84,73,76,69,62,68,60,47,30.07,29.98,6,3,0,0.00
2013-9-16,98,86,73,76,68,43,69,55,33,30.13,30.00,10,2,0,0.00
2013-9-17,96,86,77,75,70,65,68,59,43,30.12,29.98,7,2,0,0.00
2013-9-18,98,86,76,76,69,62,68,58,38,30.06,29.91,9,3,0,0.00
2013-9-19,92,82,76,80,70,34,99,69,21,30.04,29.90,6,2,0,0.52
2013-9-20,77,74,70,77,74,70,99,99,99,29.97,29.87,10,4,0,2.92
2013-9-21,87,72,61,70,59,29,99,68,24,30.01,29.89,9,4,0,0.00
2013-9-22,86,71,54,70,56,24,99,61,24,29.98,29.84,8,2,0,0.00
2013-9-23,88,73,59,67,58,20,99,63,22,29.91,29.78,9,2,0,0.00
2013-9-24,95,78,64,77,60,24,99,58,20,29.96,29.86,8,2,0,0.00
2013-9-25,96,77,56,74,55,29,99,53,21,29.94,29.81,5,1,0,0.00
2013-9-26,96,81,65,68,62,54,72,55,35,29.93,29.83,8,3,0,0.00
2013-9-27,88,79,66,76,67,32,99,69,22,29.99,29.89,9,4,0,0.00
2013-9-28,90,78,67,83,68,33,99,78,21,30.07,29.92,10,5,0,0.87
2013-9-29,84,72,64,69,63,33,99,75,27,30.09,29.94,6,2,0,0.00
2013-9-30,89,75,59,75,62,15,99,69,10,29.96,29.84,6,1,0,0.00
2013-10-1,92,80,71,81,71,-8,99,80,3,29.99,29.88,7,3,0,0.00
2013-10-2,90,80,74,82,74,41,99,84,23,30.03,29.91,10,4,0,0.00
2013-10-3,92,81,74,82,72,-17,99,79,2,29.98,29.85,11,5,0,0.00
2013-10-4,90,81,74,83,72,38,99,78,25,29.96,29.87,11,5,0,0.00
2013-10-5,80,66,52,79,62,-15,99,91,3,30.13,29.91,10,4,0,0.62
2013-10-6,76,61,48,66,48,38,99,70,30,30.16,30.06,10,3,0,0.01
2013-10-7,83,64,43,69,43,-25,99,53,4,30.19,30.09,7,1,0,0.00
2013-10-8,83,66,49,59,52,18,99,62,29,30.16,30.04,8,2,0,0.00
2013-10-9,85,69,54,68,57,20,99,69,23,30.12,30.02,7,2,0,0.00
2013-10-10,84,71,59,72,61,22,99,74,21,30.11,29.93,8,3,0,0.00
2013-10-11,87,76,67,78,66,34,99,75,20,29.99,29.87,13,5,0,0.00
2013-10-12,91,78,70,84,72,15,99,86,10,30.11,29.92,9,4,0,0.12
2013-10-13,77,72,67,77,72,67,99,99,99,30.25,30.09,8,2,0,0.00
2013-10-14,75,72,70,74,72,69,99,99,99,30.18,29.97,7,3,0,0.92
2013-10-15,78,69,55,78,68,55,99,99,99,30.08,29.95,10,5,0,3.20
2013-10-16,62,56,53,62,55,19,99,97,19,30.13,30.02,9,3,0,0.56
2013-10-17,75,59,45,64,51,18,99,78,17,30.17,30.02,5,1,0,0.00
2013-10-18,74,61,49,66,52,13,99,76,21,30.09,29.94,9,2,0,0.00
2013-10-19,67,54,43,48,36,-2,99,52,12,30.25,30.10,10,4,0,0.00
2013-10-20,73,56,40,61,46,8,99,71,21,30.12,29.92,10,3,0,0.00
2013-10-21,75,62,52,74,50,16,99,69,20,30.14,29.95,10,4,0,0.00
2013-10-22,78,60,40,63,48,18,99,72,23,30.20,30.06,6,1,0,0.00
2013-10-23,84,65,46,67,52,29,99,69,35,30.17,30.07,5,1,0,0.00
2013-10-24,83,66,50,63,53,20,99,64,20,30.31,30.10,7,2,0,0.00
2013-10-25,70,59,50,54,50,41,96,73,55,30.45,30.29,9,3,0,0.00
2013-10-26,78,63,51,68,57,44,99,81,66,30.28,30.06,11,4,0,2.39
2013-10-27,72,64,60,71,58,27,99,86,20,30.17,30.05,4,0,0,0.00
2013-10-28,79,67,56,79,62,32,99,87,22,30.15,30.04,6,2,0,0.00
2013-10-29,77,73,69,76,72,69,99,99,99,30.13,30.04,11,5,0,0.00
2013-10-30,73,69,66,73,69,66,99,99,99,30.07,29.84,12,5,0,1.12
2013-10-31,79,69,52,79,61,48,99,80,33,29.92,29.71,11,4,0,0.02
2013-11-1,78,62,47,67,52,15,99,74,28,30.11,29.85,10,2,0,0.00
2013-11-2,69,58,45,51,44,36,88,63,40,30.32,30.11,9,3,0,0.00
2013-11-3,69,54,39,52,42,15,92,66,27,30.25,30.04,10,3,0,0.00
2013-11-4,61,58,54,61,55,21,99,90,27,30.15,30.04,9,3,0,1.71
2013-11-5,70,66,61,69,65,61,99,99,99,30.10,29.97,8,4,0,0.69
2013-11-6,70,56,43,70,50,22,99,82,26,30.39,29.99,13,4,0,0.07
2013-11-7,66,50,35,56,40,3,99,72,22,30.54,30.39,5,1,0,0.00
2013-11-8,68,59,44,62,47,-31,99,68,3,30.42,30.17,9,4,0,0.00
2013-11-9,70,59,54,59,50,36,91,72,49,30.29,30.16,10,3,0,0.00
2013-11-10,71,58,48,55,49,24,99,75,37,30.39,30.26,4,1,0,0.00
2013-11-11,76,58,45,66,51,21,99,80,19,30.32,30.20,4,1,0,0.00
2013-11-12,59,48,32,59,38,12,99,70,23,30.72,30.31,18,6,0,0.00
2013-11-13,55,39,26,36,29,20,87,68,44,30.72,30.41,6,1,0,0.00
2013-11-14,62,47,30,52,39,29,98,76,39,30.41,30.07,10,4,0,0.00
2013-11-15,72,60,53,63,56,28,99,88,29,30.07,29.87,10,4,0,0.00
2013-11-16,75,69,61,74,64,13,99,87,10,29.90,29.72,13,7,0,0.00
2013-11-17,89,76,61,80,65,38,99,72,22,30.04,29.73,10,4,0,0.00
2013-11-18,75,62,51,47,43,38,70,50,29,30.21,30.04,9,4,0,0.00
2013-11-19,70,60,53,47,42,38,69,54,32,30.22,30.06,8,3,0,0.00
2013-11-20,68,57,44,58,47,38,97,71,56,30.07,29.94,8,3,0,0.00
2013-11-21,72,65,47,72,64,37,99,98,43,30.21,29.99,15,3,0,0.86
2013-11-22,46,38,35,45,38,35,99,99,99,30.46,30.20,14,6,0,0.53
2013-11-23,42,39,36,42,36,6,99,91,22,30.57,30.44,10,6,0,0.11
2013-11-24,38,34,32,32,29,26,89,81,71,30.62,30.39,10,4,0,0.01
2013-11-25,39,36,33,39,34,-1,99,94,23,30.39,30.17,9,3,0,0.98
2013-11-26,53,42,36,41,28,0,99,60,21,30.39,30.14,12,6,0,0.00
2013-11-27,48,36,27,29,25,20,92,67,42,30.51,30.38,9,3,0,0.00
2013-11-28,53,37,25,38,27,8,88,67,38,30.50,30.39,7,1,0,0.00
2013-11-29,59,43,28,46,33,-6,99,69,21,30.56,30.40,7,2,0,0.00
2013-11-30,68,53,39,58,43,16,99,70,23,30.40,30.20,10,4,0,0.00
2013-12-1,72,61,53,65,55,20,99,84,20,30.21,29.92,11,4,0,0.00
2013-12-2,72,55,41,66,51,26,99,88,29,29.92,29.69,6,1,0,0.00
2013-12-3,75,57,42,63,49,23,99,79,21,29.70,29.55,7,2,0,0.01
2013-12-4,80,64,49,72,56,19,99,79,20,29.89,29.62,9,4,0,0.00
2013-12-5,48,35,30,42,31,27,98,85,71,30.19,29.89,14,6,0,0.02
2013-12-6,33,29,24,33,23,-8,99,83,21,30.53,30.12,7,1,0,1.18
2013-12-7,27,24,21,26,22,6,98,91,41,30.56,30.32,0,0,0,0.00
2013-12-8,36,32,27,36,30,-50,99,94,2,30.30,30.07,5,0,0,0.34
2013-12-9,35,32,29,34,23,-2,99,75,22,30.44,30.18,10,4,0,0.01
2013-12-10,42,29,20,31,22,3,94,76,38,30.55,30.39,9,2,0,0.02
2013-12-11,50,34,22,40,24,-12,99,70,18,30.62,30.36,6,2,0,0.00
2013-12-12,53,38,23,40,28,-7,99,72,23,30.65,30.36,5,0,0,0.00
2013-12-13,46,42,40,46,37,-33,99,84,3,30.34,29.84,9,4,0,0.27
2013-12-14,48,42,32,47,37,7,99,86,24,30.36,29.82,17,4,0,0.00
2013-12-15,61,41,25,48,32,-8,99,73,22,30.39,30.26,5,2,0,0.00
2013-12-16,67,49,35,47,32,0,80,54,20,30.29,30.18,7,4,0,0.00
2013-12-17,73,51,35,50,38,2,99,64,21,30.33,30.24,5,1,0,0.00
2013-12-18,71,54,36,53,44,6,99,74,24,30.29,30.06,11,4,0,0.00
2013-12-19,73,62,52,68,54,-25,99,80,3,30.05,29.78,15,7,0,0.00
2013-12-20,72,60,38,72,56,-37,99,92,2,29.89,29.78,11,4,0,0.00
2013-12-21,57,46,36,57,46,36,99,99,99,29.80,29.56,9,3,0,2.66
2013-12-22,51,38,29,51,33,-6,99,84,15,30.42,29.79,11,5,0,0.01
2013-12-23,39,34,22,39,31,-9,99,94,20,30.57,30.41,6,2,0,0.00
2013-12-24,39,39,38,39,38,34,99,98,85,30.56,30.32,3,3,0,0.00
2013-12-25,38,38,38,34,34,34,85,85,85,30.32,30.32,2,2,0,0.00
2013-12-26,41,39,38,36,34,34,85,85,84,30.39,30.32,2,2,0,0.00
2013-12-27,41,41,41,36,36,36,84,84,84,30.39,30.39,0,0,0,0.00
2013-12-28,50,42,41,44,38,36,87,84,78,30.39,30.01,4,0,0,0.00
2013-12-29,54,41,32,46,33,4,99,74,24,30.31,29.97,11,4,0,0.00
2013-12-30,45,35,28,30,26,22,85,71,53,30.45,30.27,11,2,0,0.00
2013-12-31,55,39,24,37,25,-11,99,61,17,30.47,30.26,8,2,0,0.00
2014-1-1,68,48,32,56,40,-4,99,75,20,30.25,29.91,12,5,0,0.00
2014-1-2,44,32,23,32,24,21,92,74,50,30.51,30.21,15,5,0,0.00